Time;durP1;ratioP1;P1;durP2;ratioP2;P2;SDS_P1;SDS_P2;PMS_P1;PMS_P2;Temp;Humidity;BMP_temperature;BMP_pressure;BME280_temperature;BME280_humidity;BME280_pressure;Samples;Min_cycle;Max_cycle;Signal;HPM_P1;HPM_P2
2022/01/01 00:00:39;;;;;;;123.00;55.88;;;11.50;99.90;;;;;;4229189;28;20054;-87
2022/01/01 00:02:40;;;;;;;108.22;50.42;;;11.10;99.90;;;;;;4247203;28;20035;-87
2022/01/01 00:04:42;;;;;;;144.95;67.80;;;10.70;99.90;;;;;;4223803;28;20054;-88
2022/01/01 00:06:43;;;;;;;125.00;53.67;;;10.70;99.90;;;;;;4232627;28;20046;-88
2022/01/01 00:08:44;;;;;;;99.68;44.88;;;10.70;99.90;;;;;;4246794;28;20035;-88
2022/01/01 00:10:45;;;;;;;103.05;42.97;;;10.70;99.90;;;;;;4264380;27;20054;-88
2022/01/01 00:12:47;;;;;;;102.15;39.70;;;11.20;99.90;;;;;;4225426;28;20140;-88
2022/01/01 00:14:48;;;;;;;91.40;39.90;;;10.70;99.90;;;;;;4247114;28;20054;-88
2022/01/01 00:16:49;;;;;;;113.07;51.35;;;10.50;99.90;;;;;;4212600;28;20488;-88
2022/01/01 00:18:50;;;;;;;115.75;49.58;;;10.70;99.90;;;;;;4229181;28;20137;-88
2022/01/01 00:20:52;;;;;;;108.78;49.47;;;10.70;99.90;;;;;;4245634;27;20652;-88
2022/01/01 00:22:53;;;;;;;89.00;37.55;;;10.60;99.90;;;;;;4240288;28;20047;-87
2022/01/01 00:24:54;;;;;;;79.68;32.17;;;10.70;99.90;;;;;;4264259;27;20043;-87
2022/01/01 00:26:58;;;;;;;75.03;30.60;;;11.20;99.90;;;;;;4228963;28;20484;-87
2022/01/01 00:28:59;;;;;;;73.45;29.88;;;10.60;99.90;;;;;;4229579;28;20051;-86
2022/01/01 00:30:59;;;;;;;65.50;28.80;;;10.70;99.90;;;;;;4261168;27;20046;-86
2022/01/01 00:33:00;;;;;;;70.85;27.83;;;10.60;99.90;;;;;;4247227;28;20448;-87
2022/01/01 00:35:01;;;;;;;69.55;28.33;;;10.70;99.90;;;;;;4247784;27;20096;-86
2022/01/01 00:37:03;;;;;;;63.70;24.77;;;10.70;99.90;;;;;;4237105;27;20032;-84
2022/01/01 00:39:05;;;;;;;53.45;23.30;;;10.60;99.90;;;;;;4262054;27;20031;-85
2022/01/01 00:41:06;;;;;;;62.33;22.83;;;10.60;99.90;;;;;;4216246;28;20047;-85
2022/01/01 00:43:07;;;;;;;60.58;22.25;;;10.60;99.90;;;;;;4251291;27;20348;-85
2022/01/01 00:45:08;;;;;;;61.97;23.58;;;11.40;99.90;;;;;;4250679;27;20038;-86
2022/01/01 00:47:10;;;;;;;55.08;20.60;;;10.60;99.90;;;;;;4249067;27;20046;-86
2022/01/01 00:49:10;;;;;;;47.63;18.70;;;10.60;99.90;;;;;;4252685;27;20047;-87
2022/01/01 00:51:11;;;;;;;50.08;20.23;;;10.60;99.90;;;;;;4241088;27;20043;-86
2022/01/01 00:53:12;;;;;;;56.10;21.70;;;10.60;99.90;;;;;;4265842;27;20077;-86
2022/01/01 00:55:13;;;;;;;59.10;26.38;;;10.50;99.90;;;;;;4255145;27;20047;-86
2022/01/01 00:57:14;;;;;;;78.65;36.88;;;10.90;99.90;;;;;;4234513;27;20058;-85
2022/01/01 00:59:17;;;;;;;64.13;32.78;;;10.60;99.90;;;;;;4266179;27;20149;-85
2022/01/01 01:01:19;;;;;;;71.60;29.85;;;10.50;99.90;;;;;;4266377;27;20046;-85
2022/01/01 01:03:20;;;;;;;63.80;24.15;;;10.90;99.90;;;;;;4266796;27;20134;-85
2022/01/01 01:05:21;;;;;;;53.30;22.83;;;10.60;99.90;;;;;;4248348;27;20177;-86
2022/01/01 01:07:21;;;;;;;62.22;24.67;;;10.50;99.90;;;;;;4257389;27;20039;-85
2022/01/01 01:09:22;;;;;;;75.00;34.53;;;10.80;99.90;;;;;;4249323;27;20057;-85
2022/01/01 01:11:23;;;;;;;75.03;31.60;;;10.40;99.90;;;;;;4213470;28;20173;-85
2022/01/01 01:13:27;;;;;;;92.30;39.33;;;10.40;99.90;;;;;;4230709;27;20114;-85
2022/01/01 01:15:30;;;;;;;77.45;31.25;;;10.40;99.90;;;;;;4255212;27;20045;-86
2022/01/01 01:17:30;;;;;;;68.25;28.05;;;10.90;99.90;;;;;;4231845;28;20158;-85
2022/01/01 01:19:31;;;;;;;72.15;34.40;;;10.40;99.90;;;;;;4243295;27;20081;-86
2022/01/01 01:21:32;;;;;;;64.88;28.83;;;10.60;99.90;;;;;;4250311;27;20047;-86
2022/01/01 01:23:34;;;;;;;79.43;35.70;;;11.40;99.90;;;;;;4230952;28;20081;-85
2022/01/01 01:25:40;;;;;;;58.92;28.13;;;9.30;99.90;;;;;;4249776;27;20115;-86
2022/01/01 01:27:41;;;;;;;56.80;20.60;;;10.30;99.90;;;;;;4250228;27;20507;-86
2022/01/01 01:29:45;;;;;;;52.33;19.92;;;10.40;99.90;;;;;;4250024;27;20038;-85
2022/01/01 01:31:46;;;;;;;48.45;17.83;;;10.40;99.90;;;;;;4231232;28;20059;-85
2022/01/01 01:33:47;;;;;;;48.88;16.60;;;10.10;99.90;;;;;;4250432;27;20054;-85
2022/01/01 01:35:48;;;;;;;38.05;15.68;;;10.30;99.90;;;;;;4231745;28;20048;-85
2022/01/01 01:37:48;;;;;;;50.95;17.10;;;10.60;99.90;;;;;;4251008;27;20510;-84
2022/01/01 01:39:49;;;;;;;41.22;15.57;;;10.30;99.90;;;;;;4233845;28;20098;-85
2022/01/01 01:41:52;;;;;;;43.40;16.20;;;10.30;99.90;;;;;;4232833;28;20051;-84
2022/01/01 01:43:54;;;;;;;47.25;16.45;;;10.30;99.90;;;;;;4231212;28;20122;-84
2022/01/01 01:45:55;;;;;;;44.25;15.90;;;10.20;99.90;;;;;;4231367;28;20552;-84
2022/01/01 01:47:56;;;;;;;48.60;15.70;;;10.20;99.90;;;;;;4249448;27;20039;-84
2022/01/01 01:49:59;;;;;;;38.22;14.50;;;11.00;99.90;;;;;;4230424;28;20257;-85
2022/01/01 01:52:01;;;;;;;44.63;14.38;;;10.30;99.90;;;;;;4249280;27;20126;-84
2022/01/01 01:54:06;;;;;;;35.33;12.95;;;10.20;99.90;;;;;;4249496;27;20047;-84
2022/01/01 01:56:08;;;;;;;37.67;13.65;;;10.10;99.90;;;;;;4249777;27;20491;-85
2022/01/01 01:58:09;;;;;;;43.72;14.38;;;10.10;99.90;;;;;;4231110;28;20134;-85
2022/01/01 02:00:39;;;;;;;42.38;11.63;;;10.20;99.90;;;;;;4231463;28;20043;-85
2022/01/01 02:02:33;;;;;;;37.67;11.15;;;10.10;99.90;;;;;;4230687;28;20051;-85
2022/01/01 02:04:34;;;;;;;37.78;10.77;;;10.10;99.90;;;;;;4214024;28;20619;-85
2022/01/01 02:06:36;;;;;;;41.70;10.35;;;11.30;99.90;;;;;;4232907;27;20133;-85
2022/01/01 02:08:39;;;;;;;41.28;9.85;;;10.40;99.90;;;;;;4230489;28;20393;-85
2022/01/01 02:10:40;;;;;;;40.55;12.02;;;10.00;99.90;;;;;;4230928;28;20487;-85
2022/01/01 02:12:42;;;;;;;37.03;11.73;;;10.10;99.90;;;;;;4234195;27;20035;-85
2022/01/01 02:18:52;;;;;;;41.65;13.57;;;10.00;99.90;;;;;;4231287;28;20509;-85
2022/01/01 02:20:56;;;;;;;43.03;13.35;;;10.00;99.90;;;;;;4230452;28;20055;-85
2022/01/01 02:23:00;;;;;;;42.85;13.23;;;10.00;99.90;;;;;;4213545;28;20071;-85
2022/01/01 02:25:01;;;;;;;48.17;14.02;;;10.60;99.90;;;;;;4230242;28;20443;-85
2022/01/01 02:27:02;;;;;;;49.88;14.50;;;10.10;99.90;;;;;;4248661;27;20435;-86
2022/01/01 02:29:03;;;;;;;51.15;16.05;;;10.10;99.90;;;;;;4248257;27;20038;-86
2022/01/01 02:31:04;;;;;;;47.72;15.27;;;11.10;99.90;;;;;;4243168;27;20039;-85
2022/01/01 02:33:05;;;;;;;54.80;16.42;;;10.10;99.90;;;;;;4264785;27;20351;-85
2022/01/01 02:35:08;;;;;;;61.83;17.55;;;10.20;99.90;;;;;;4246292;27;20134;-85
2022/01/01 02:37:09;;;;;;;56.47;16.52;;;10.20;99.90;;;;;;4264541;27;20126;-85
2022/01/01 02:39:14;;;;;;;56.78;17.77;;;10.30;99.90;;;;;;4264365;27;20398;-85
2022/01/01 02:41:15;;;;;;;55.03;17.88;;;10.30;99.90;;;;;;4245561;27;20168;-85
2022/01/01 02:43:17;;;;;;;58.15;20.05;;;10.00;99.90;;;;;;4245745;27;20050;-85
2022/01/01 02:45:20;;;;;;;69.22;19.50;;;10.30;99.90;;;;;;4260687;27;20034;-85
2022/01/01 02:47:21;;;;;;;63.13;20.00;;;10.40;99.90;;;;;;4255344;27;20041;-85
2022/01/01 02:49:22;;;;;;;70.28;20.38;;;10.30;99.90;;;;;;4265410;27;20130;-85
2022/01/01 02:51:23;;;;;;;71.93;20.63;;;10.40;99.90;;;;;;4239767;27;20081;-86
2022/01/01 02:53:23;;;;;;;75.72;20.10;;;11.30;99.90;;;;;;4229898;28;20127;-85
2022/01/01 02:55:24;;;;;;;57.05;18.75;;;11.50;99.90;;;;;;4248506;27;20065;-85
2022/01/01 02:57:25;;;;;;;66.22;19.75;;;10.40;99.90;;;;;;4248184;27;20039;-85
2022/01/01 02:59:25;;;;;;;66.80;19.83;;;10.40;99.90;;;;;;4229445;28;20039;-86
2022/01/01 03:01:26;;;;;;;61.75;19.17;;;10.40;99.90;;;;;;4247233;27;20066;-86
2022/01/01 03:03:27;;;;;;;62.28;17.83;;;10.50;99.90;;;;;;4247747;27;20043;-85
2022/01/01 03:05:30;;;;;;;58.67;17.63;;;10.40;99.90;;;;;;4229410;28;20062;-86
2022/01/01 03:07:31;;;;;;;50.95;16.85;;;10.40;99.90;;;;;;4238976;27;20054;-85
2022/01/01 03:09:37;;;;;;;64.20;17.55;;;10.50;99.90;;;;;;4228866;28;20035;-86
2022/01/01 03:11:38;;;;;;;49.95;15.55;;;10.50;99.90;;;;;;4248210;27;20539;-86
2022/01/01 03:13:38;;;;;;;55.97;15.00;;;10.50;99.90;;;;;;4247415;27;20092;-85
2022/01/01 03:15:40;;;;;;;44.97;15.75;;;10.40;99.90;;;;;;4247754;27;20031;-86
2022/01/01 03:17:41;;;;;;;57.20;15.27;;;10.50;99.90;;;;;;4229521;28;20079;-85
2022/01/01 03:19:42;;;;;;;49.72;16.23;;;10.50;99.90;;;;;;4247767;27;20043;-85
2022/01/01 03:21:43;;;;;;;47.00;14.55;;;10.50;99.90;;;;;;4230022;28;20047;-85
2022/01/01 03:23:43;;;;;;;44.42;13.95;;;10.50;99.90;;;;;;4229793;28;20128;-86
2022/01/01 03:25:44;;;;;;;48.95;15.23;;;10.40;99.90;;;;;;4248185;27;20627;-86
2022/01/01 03:27:45;;;;;;;61.83;15.25;;;10.40;99.90;;;;;;4247699;27;20058;-86
2022/01/01 03:29:45;;;;;;;42.42;12.02;;;10.40;99.90;;;;;;4229258;28;20043;-86
2022/01/01 03:31:46;;;;;;;57.88;14.70;;;10.40;99.90;;;;;;4254439;27;20486;-87
2022/01/01 03:33:47;;;;;;;59.38;13.70;;;10.40;99.90;;;;;;4246033;27;20046;-86
2022/01/01 03:35:48;;;;;;;58.40;15.40;;;10.80;99.90;;;;;;4265319;27;20482;-86
2022/01/01 03:37:49;;;;;;;58.83;15.50;;;11.40;99.90;;;;;;4216298;28;20048;-87
2022/01/01 03:39:50;;;;;;;50.70;13.63;;;9.60;99.90;;;;;;4246923;27;20051;-86
2022/01/01 03:41:50;;;;;;;54.80;14.38;;;10.50;99.90;;;;;;4248089;28;20047;-86
2022/01/01 03:43:51;;;;;;;43.40;15.20;;;10.70;99.90;;;;;;4229925;28;20048;-86
2022/01/01 03:45:52;;;;;;;54.65;13.75;;;10.80;99.90;;;;;;4230124;28;20052;-86
2022/01/01 03:47:53;;;;;;;59.63;15.32;;;10.70;99.90;;;;;;4248111;28;20544;-86
2022/01/01 03:49:54;;;;;;;52.47;15.85;;;10.40;99.90;;;;;;4248065;27;20050;-86
2022/01/01 03:51:54;;;;;;;47.25;13.43;;;10.50;99.90;;;;;;4232762;28;20040;-87
2022/01/01 03:53:55;;;;;;;54.47;15.98;;;10.50;99.90;;;;;;4250001;28;20070;-86
2022/01/01 03:55:59;;;;;;;60.13;14.80;;;10.50;99.90;;;;;;4232129;28;20043;-85
2022/01/01 03:57:59;;;;;;;54.05;14.02;;;10.40;99.90;;;;;;4215957;28;20044;-85
2022/01/01 04:00:00;;;;;;;50.03;14.48;;;10.70;99.90;;;;;;4216761;28;20451;-85
2022/01/01 04:02:01;;;;;;;52.40;13.25;;;10.40;99.90;;;;;;4248040;28;20055;-85
2022/01/01 04:04:02;;;;;;;52.53;13.32;;;10.40;99.90;;;;;;4254701;28;20065;-85
2022/01/01 04:06:02;;;;;;;46.38;11.93;;;10.50;99.90;;;;;;4272115;27;20049;-85
2022/01/01 04:08:04;;;;;;;53.42;14.43;;;10.50;99.90;;;;;;4272899;27;20042;-85
2022/01/01 04:10:05;;;;;;;48.13;11.95;;;10.50;99.90;;;;;;4254914;27;20432;-86
2022/01/01 04:12:06;;;;;;;49.55;13.63;;;10.50;99.90;;;;;;4251566;27;20092;-86
2022/01/01 04:14:11;;;;;;;47.42;12.27;;;10.50;99.90;;;;;;4267278;27;20042;-85
2022/01/01 04:16:12;;;;;;;48.53;13.55;;;10.50;99.90;;;;;;4249539;27;20051;-86
2022/01/01 04:18:19;;;;;;;44.97;10.70;;;10.50;99.90;;;;;;4268408;27;20039;-86
2022/01/01 04:20:19;;;;;;;52.97;11.50;;;10.50;99.90;;;;;;4232958;28;20100;-86
2022/01/01 04:22:20;;;;;;;41.35;11.52;;;10.50;99.90;;;;;;4233060;28;20506;-86
2022/01/01 04:24:21;;;;;;;33.70;10.75;;;10.50;99.90;;;;;;4250988;27;20095;-86
2022/01/01 04:26:23;;;;;;;36.35;11.90;;;10.40;99.90;;;;;;4251500;27;20043;-86
2022/01/01 04:28:23;;;;;;;52.75;12.52;;;10.40;99.90;;;;;;4232673;28;20466;-86
2022/01/01 04:30:28;;;;;;;45.33;12.50;;;10.50;99.90;;;;;;4232626;28;20043;-86
2022/01/01 04:32:30;;;;;;;36.42;11.48;;;10.50;99.90;;;;;;4251803;27;20043;-86
2022/01/01 04:34:31;;;;;;;39.80;11.50;;;10.40;99.90;;;;;;4255792;27;20518;-86
2022/01/01 04:36:31;;;;;;;52.17;13.75;;;10.40;99.90;;;;;;4233729;28;20048;-86
2022/01/01 04:40:36;;;;;;;53.10;12.77;;;10.50;99.90;;;;;;4264972;27;20051;-85
2022/01/01 04:42:36;;;;;;;41.83;11.60;;;10.80;99.90;;;;;;4269618;27;20126;-86
2022/01/01 04:44:38;;;;;;;69.40;19.40;;;10.50;99.90;;;;;;4267846;27;20095;-86
2022/01/01 04:46:39;;;;;;;49.58;13.02;;;10.40;99.90;;;;;;4242669;27;20042;-85
2022/01/01 04:48:40;;;;;;;40.40;11.20;;;10.40;99.90;;;;;;4249898;27;20134;-86
2022/01/01 04:50:41;;;;;;;43.00;12.50;;;10.40;99.90;;;;;;4249063;27;20035;-86
2022/01/01 04:52:43;;;;;;;39.38;12.40;;;10.40;99.90;;;;;;4231247;28;20530;-86
2022/01/01 04:54:44;;;;;;;42.53;12.90;;;10.40;99.90;;;;;;4248482;27;20053;-86
2022/01/01 04:56:47;;;;;;;43.15;12.68;;;10.40;99.90;;;;;;4249546;27;20043;-86
2022/01/01 04:58:48;;;;;;;48.00;12.73;;;10.70;99.90;;;;;;4263295;27;20130;-86
2022/01/01 05:00:50;;;;;;;47.70;12.82;;;10.40;99.90;;;;;;4248113;27;20091;-86
2022/01/01 05:02:51;;;;;;;45.10;12.13;;;10.50;99.90;;;;;;4247965;27;20050;-86
2022/01/01 05:04:53;;;;;;;43.92;12.60;;;10.40;99.90;;;;;;4239599;27;20116;-86
2022/01/01 05:06:54;;;;;;;34.22;11.30;;;10.40;99.90;;;;;;4262289;27;20141;-86
2022/01/01 05:08:56;;;;;;;45.08;11.80;;;10.40;99.90;;;;;;4267242;27;20130;-86
2022/01/01 05:10:56;;;;;;;56.72;15.07;;;10.40;99.90;;;;;;4248300;27;20462;-86
2022/01/01 05:12:57;;;;;;;48.90;13.48;;;10.70;99.90;;;;;;4231299;28;20050;-86
2022/01/01 05:14:58;;;;;;;46.85;13.73;;;11.20;99.90;;;;;;4231786;28;20051;-85
2022/01/01 05:16:58;;;;;;;42.65;12.95;;;11.00;99.90;;;;;;4253197;27;20043;-86
2022/01/01 05:18:59;;;;;;;56.80;12.18;;;10.40;99.90;;;;;;4252005;27;20475;-86
2022/01/01 05:21:00;;;;;;;51.90;14.52;;;10.40;99.90;;;;;;4234179;28;20180;-86
2022/01/01 05:23:02;;;;;;;47.13;13.27;;;10.40;99.90;;;;;;4249894;27;20567;-86
2022/01/01 05:25:05;;;;;;;42.70;14.00;;;10.50;99.90;;;;;;4232287;28;20063;-86
2022/01/01 05:27:06;;;;;;;49.15;14.85;;;10.40;99.90;;;;;;4250268;27;20516;-86
2022/01/01 05:29:07;;;;;;;46.70;15.57;;;10.40;99.90;;;;;;4250066;27;20039;-86
2022/01/01 05:31:08;;;;;;;55.72;16.40;;;10.70;99.90;;;;;;4249436;27;20119;-86
2022/01/01 05:33:09;;;;;;;51.38;15.32;;;10.50;99.90;;;;;;4249806;27;20050;-86
2022/01/01 05:35:10;;;;;;;53.33;16.65;;;10.60;99.90;;;;;;4231850;28;20514;-86
2022/01/01 05:37:11;;;;;;;59.55;18.90;;;10.50;99.90;;;;;;4232138;27;20161;-86
2022/01/01 05:39:12;;;;;;;65.55;18.83;;;10.50;99.90;;;;;;4231230;28;20051;-85
2022/01/01 05:41:13;;;;;;;63.53;19.35;;;10.50;99.90;;;;;;4249595;27;20079;-86
2022/01/01 05:43:13;;;;;;;51.72;18.75;;;10.60;99.90;;;;;;4231411;28;20051;-86
2022/01/01 05:45:14;;;;;;;74.63;20.65;;;10.50;99.90;;;;;;4249704;27;20478;-86
2022/01/01 05:47:15;;;;;;;63.58;21.30;;;10.50;99.90;;;;;;4232000;28;20047;-86
2022/01/01 05:49:16;;;;;;;64.30;22.00;;;10.50;99.90;;;;;;4239340;27;20092;-86
2022/01/01 05:51:17;;;;;;;69.63;20.20;;;11.00;99.90;;;;;;4249610;27;20125;-86
2022/01/01 05:53:19;;;;;;;68.68;20.88;;;10.50;99.90;;;;;;4248492;27;20043;-86
2022/01/01 05:55:19;;;;;;;64.20;21.45;;;10.50;99.90;;;;;;4248700;27;20047;-86
2022/01/01 05:57:20;;;;;;;58.90;21.70;;;10.50;99.90;;;;;;4250026;27;20057;-86
2022/01/01 05:59:21;;;;;;;59.17;20.20;;;10.50;99.90;;;;;;4223791;28;20083;-86
2022/01/01 06:01:22;;;;;;;56.35;19.65;;;10.50;99.90;;;;;;4266196;27;20047;-86
2022/01/01 06:03:22;;;;;;;51.22;17.50;;;10.60;99.90;;;;;;4248690;27;20047;-86
2022/01/01 06:05:23;;;;;;;58.22;17.55;;;10.50;99.90;;;;;;4248352;27;20050;-86
2022/01/01 06:07:24;;;;;;;59.67;18.05;;;10.50;99.90;;;;;;4266583;27;20132;-86
2022/01/01 06:09:24;;;;;;;53.72;17.42;;;10.50;99.90;;;;;;4266440;27;20082;-86
2022/01/01 06:11:25;;;;;;;54.13;14.10;;;10.40;99.90;;;;;;4247583;27;20050;-86
2022/01/01 06:13:26;;;;;;;43.17;14.95;;;10.40;99.90;;;;;;4267833;27;20039;-86
2022/01/01 06:15:27;;;;;;;38.08;11.85;;;10.40;99.90;;;;;;4251053;27;20051;-86
2022/01/01 06:17:28;;;;;;;40.60;12.60;;;11.00;99.90;;;;;;4280511;27;20030;-86
2022/01/01 06:19:30;;;;;;;32.97;11.02;;;11.10;99.90;;;;;;4285436;27;20034;-86
2022/01/01 06:21:31;;;;;;;36.47;12.40;;;10.30;99.90;;;;;;4285930;27;20050;-86
2022/01/01 06:23:34;;;;;;;38.38;13.30;;;10.60;99.90;;;;;;4267325;27;20327;-86
2022/01/01 06:25:35;;;;;;;47.08;11.45;;;10.30;99.90;;;;;;4263731;27;20043;-85
2022/01/01 06:27:36;;;;;;;34.80;10.68;;;10.30;99.90;;;;;;4250427;27;20054;-86
2022/01/01 06:29:37;;;;;;;46.00;12.13;;;10.30;99.90;;;;;;4249521;27;20076;-86
2022/01/01 06:31:38;;;;;;;43.65;11.80;;;10.30;99.90;;;;;;4233144;28;20127;-86
2022/01/01 06:33:38;;;;;;;48.58;10.80;;;10.90;99.90;;;;;;4248500;27;20043;-86
2022/01/01 06:35:42;;;;;;;42.97;11.18;;;10.80;99.90;;;;;;4232473;28;20051;-86
2022/01/01 06:37:43;;;;;;;37.53;10.40;;;11.30;99.90;;;;;;4267125;27;20433;-86
2022/01/01 06:39:44;;;;;;;33.92;9.98;;;10.30;99.90;;;;;;4265788;27;20054;-86
2022/01/01 06:41:45;;;;;;;38.90;10.48;;;10.30;99.90;;;;;;4247751;27;20411;-86
2022/01/01 06:43:45;;;;;;;50.50;10.30;;;10.30;99.90;;;;;;4218159;28;20401;-86
2022/01/01 06:45:46;;;;;;;35.17;10.07;;;10.30;99.90;;;;;;4213770;28;20518;-85
2022/01/01 06:47:47;;;;;;;45.28;10.60;;;10.30;99.90;;;;;;4246927;27;20541;-86
2022/01/01 06:49:47;;;;;;;37.05;11.07;;;10.30;99.90;;;;;;4265740;27;20042;-86
2022/01/01 06:51:48;;;;;;;43.75;11.50;;;10.30;99.90;;;;;;4247885;27;20055;-86
2022/01/01 06:53:49;;;;;;;42.83;11.23;;;10.30;99.90;;;;;;4230447;28;20126;-86
2022/01/01 06:55:50;;;;;;;36.22;9.82;;;10.30;99.90;;;;;;4264768;27;20080;-86
2022/01/01 06:57:51;;;;;;;38.47;11.18;;;10.30;99.90;;;;;;4264483;27;20045;-86
2022/01/01 06:59:51;;;;;;;43.63;10.18;;;10.40;99.90;;;;;;4266023;27;20515;-86
2022/01/01 07:01:53;;;;;;;39.70;9.82;;;10.40;99.90;;;;;;4265206;27;20043;-86
2022/01/01 07:03:55;;;;;;;38.45;9.82;;;10.30;99.90;;;;;;4246560;27;20054;-86
2022/01/01 07:05:56;;;;;;;34.65;9.57;;;10.30;99.90;;;;;;4246438;27;20504;-86
2022/01/01 07:07:57;;;;;;;39.95;9.63;;;10.70;99.90;;;;;;4266135;27;20492;-86
2022/01/01 07:09:58;;;;;;;39.67;9.65;;;10.40;99.90;;;;;;4230133;28;20040;-86
2022/01/01 07:11:59;;;;;;;38.28;10.95;;;10.00;99.90;;;;;;4230052;28;20046;-86
2022/01/01 07:14:00;;;;;;;42.05;10.27;;;10.40;99.90;;;;;;4264889;27;20039;-86
2022/01/01 07:16:01;;;;;;;41.53;11.07;;;10.40;99.90;;;;;;4265142;27;20053;-86
2022/01/01 07:18:02;;;;;;;35.10;9.75;;;10.40;99.90;;;;;;4230050;28;20130;-86
2022/01/01 07:20:04;;;;;;;46.97;9.80;;;10.40;99.90;;;;;;4264907;27;20045;-86
2022/01/01 07:22:05;;;;;;;48.00;10.68;;;10.40;99.90;;;;;;4229584;28;20139;-86
2022/01/01 07:24:06;;;;;;;43.83;10.90;;;10.40;99.90;;;;;;4265319;27;20402;-85
2022/01/01 07:26:07;;;;;;;41.65;9.52;;;10.50;99.90;;;;;;4264767;27;20492;-86
2022/01/01 07:28:10;;;;;;;49.15;9.40;;;10.50;99.90;;;;;;4264979;27;20042;-86
2022/01/01 07:30:11;;;;;;;34.88;9.65;;;10.50;99.90;;;;;;4229327;28;20119;-86
2022/01/01 07:32:12;;;;;;;30.30;10.10;;;10.50;99.90;;;;;;4249134;27;20504;-86
2022/01/01 07:34:12;;;;;;;36.72;9.15;;;10.60;99.90;;;;;;4229642;28;20039;-86
2022/01/01 07:36:13;;;;;;;37.47;8.95;;;11.00;99.90;;;;;;4228875;28;20498;-86
2022/01/01 07:38:14;;;;;;;34.63;9.05;;;10.50;99.90;;;;;;4246082;27;20054;-86
2022/01/01 07:40:16;;;;;;;29.05;8.55;;;10.60;99.90;;;;;;4229706;28;20047;-86
2022/01/01 07:42:17;;;;;;;35.33;8.10;;;10.60;99.90;;;;;;4247759;28;20079;-86
2022/01/01 07:44:18;;;;;;;35.88;8.32;;;10.60;99.90;;;;;;4229587;28;20043;-86
2022/01/01 07:46:18;;;;;;;37.95;8.32;;;11.40;99.90;;;;;;4246331;27;20175;-86
2022/01/01 07:48:19;;;;;;;29.42;8.20;;;10.60;99.90;;;;;;4232756;27;20107;-85
2022/01/01 07:50:20;;;;;;;33.72;8.27;;;10.60;99.90;;;;;;4233393;28;20091;-86
2022/01/01 07:52:21;;;;;;;35.65;9.50;;;10.60;99.90;;;;;;4250338;27;20055;-86
2022/01/01 07:54:21;;;;;;;41.88;10.23;;;10.60;99.90;;;;;;4232650;28;20408;-86
2022/01/01 07:56:22;;;;;;;34.58;8.40;;;11.00;99.90;;;;;;4251228;27;20039;-86
2022/01/01 07:58:23;;;;;;;38.35;9.63;;;10.70;99.90;;;;;;4233445;28;20043;-86
2022/01/01 08:00:24;;;;;;;40.67;9.68;;;10.90;99.90;;;;;;4250691;27;20047;-86
2022/01/01 08:02:24;;;;;;;32.03;9.32;;;10.70;99.90;;;;;;4233830;28;20039;-86
2022/01/01 08:04:25;;;;;;;31.88;9.57;;;10.70;99.90;;;;;;4250615;27;20042;-86
2022/01/01 08:06:26;;;;;;;37.88;8.82;;;10.70;99.90;;;;;;4234148;27;20047;-86
2022/01/01 08:08:27;;;;;;;37.90;9.32;;;10.70;99.90;;;;;;4252105;27;20043;-86
2022/01/01 08:10:28;;;;;;;47.28;10.18;;;11.40;99.90;;;;;;4232642;28;20055;-86
2022/01/01 08:12:29;;;;;;;45.17;9.93;;;11.00;99.90;;;;;;4232891;28;20056;-87
2022/01/01 08:14:30;;;;;;;41.53;9.75;;;10.80;99.90;;;;;;4232683;28;20051;-86
2022/01/01 08:16:31;;;;;;;37.55;10.63;;;10.80;99.90;;;;;;4250885;27;20057;-86
2022/01/01 08:18:33;;;;;;;39.00;10.27;;;10.90;99.90;;;;;;4232529;28;20531;-86
2022/01/01 08:20:34;;;;;;;40.00;10.10;;;11.00;99.90;;;;;;4232732;28;20040;-86
2022/01/01 08:22:34;;;;;;;46.00;10.07;;;10.90;99.90;;;;;;4232679;28;20054;-86
2022/01/01 08:24:35;;;;;;;35.53;10.27;;;11.00;99.90;;;;;;4250988;27;20039;-86
2022/01/01 08:26:37;;;;;;;43.75;10.68;;;11.00;99.90;;;;;;4251027;27;20085;-86
2022/01/01 08:28:38;;;;;;;43.85;10.73;;;11.00;99.90;;;;;;4252106;27;20070;-85
2022/01/01 08:30:39;;;;;;;43.72;10.60;;;11.00;99.90;;;;;;4239827;27;20047;-86
2022/01/01 08:32:40;;;;;;;39.70;9.82;;;11.00;99.90;;;;;;4268979;27;20397;-86
2022/01/01 08:34:41;;;;;;;43.53;10.40;;;11.00;99.90;;;;;;4269304;27;20051;-86
2022/01/01 08:36:42;;;;;;;51.58;13.38;;;11.10;99.90;;;;;;4275161;27;20038;-86
2022/01/01 08:38:42;;;;;;;43.50;10.95;;;11.80;99.90;;;;;;4268783;27;20042;-86
2022/01/01 08:40:43;;;;;;;39.28;12.10;;;11.10;99.90;;;;;;4251943;27;20283;-86
2022/01/01 08:42:44;;;;;;;44.63;11.23;;;11.40;99.90;;;;;;4245446;27;20104;-86
2022/01/01 08:44:45;;;;;;;45.53;12.35;;;11.20;99.90;;;;;;4234275;28;20044;-86
2022/01/01 08:46:46;;;;;;;40.67;11.45;;;11.20;99.90;;;;;;4233472;28;20180;-86
2022/01/01 08:48:47;;;;;;;41.10;12.23;;;11.20;99.90;;;;;;4236409;27;20154;-85
2022/01/01 08:50:48;;;;;;;41.20;11.93;;;11.30;99.90;;;;;;4215700;28;20117;-86
2022/01/01 08:52:49;;;;;;;40.00;11.45;;;11.30;99.90;;;;;;4233622;28;20116;-86
2022/01/01 08:54:55;;;;;;;48.90;12.48;;;11.30;99.90;;;;;;4236239;28;20040;-86
2022/01/01 08:56:56;;;;;;;39.97;12.13;;;11.30;99.90;;;;;;4236089;28;20051;-86
2022/01/01 08:58:57;;;;;;;46.05;11.95;;;11.30;99.90;;;;;;4234304;28;20453;-86
2022/01/01 09:00:57;;;;;;;48.28;11.80;;;11.30;99.90;;;;;;4225260;28;20557;-86
2022/01/01 09:02:58;;;;;;;42.58;11.13;;;11.40;99.90;;;;;;4235756;28;20038;-86
2022/01/01 09:04:59;;;;;;;34.53;11.98;;;11.40;99.90;;;;;;4235324;28;20047;-86
2022/01/01 09:07:43;;;;;;;34.63;11.98;;;11.40;99.90;;;;;;4225368;28;20047;-86
2022/01/01 09:09:47;;;;;;;41.17;10.63;;;11.80;99.90;;;;;;4244484;27;20054;-86
2022/01/01 09:11:48;;;;;;;40.72;11.27;;;11.50;99.90;;;;;;4251938;27;20039;-88
2022/01/01 09:13:52;;;;;;;39.40;11.63;;;11.60;99.90;;;;;;4252784;27;20102;-87
2022/01/01 09:15:52;;;;;;;38.80;11.82;;;11.60;99.90;;;;;;4250510;27;20122;-86
2022/01/01 09:17:54;;;;;;;36.90;11.63;;;11.60;99.90;;;;;;4251760;27;20067;-86
2022/01/01 09:19:55;;;;;;;40.80;11.85;;;11.70;99.90;;;;;;4235817;27;20126;-86
2022/01/01 09:21:56;;;;;;;35.83;10.48;;;11.70;99.90;;;;;;4234596;28;20039;-87
2022/01/01 09:23:58;;;;;;;32.42;12.07;;;11.70;99.90;;;;;;4236112;28;20032;-87
2022/01/01 09:26:00;;;;;;;31.92;11.23;;;12.90;99.90;;;;;;4234948;28;20055;-87
2022/01/01 09:28:02;;;;;;;37.95;11.32;;;11.40;99.90;;;;;;4235314;28;20044;-87
2022/01/01 09:30:06;;;;;;;38.38;11.98;;;11.80;99.90;;;;;;4217695;28;20043;-88
2022/01/01 09:32:07;;;;;;;29.88;11.05;;;11.90;99.90;;;;;;4233661;28;20075;-87
2022/01/01 09:34:08;;;;;;;34.50;11.45;;;11.90;99.90;;;;;;4218625;28;20048;-87
2022/01/01 09:36:12;;;;;;;27.80;11.02;;;11.90;99.90;;;;;;4218151;28;20667;-87
2022/01/01 09:38:14;;;;;;;30.20;11.60;;;11.90;99.90;;;;;;4232212;27;20426;-87
2022/01/01 09:40:15;;;;;;;34.78;11.57;;;11.90;99.90;;;;;;4237088;27;20055;-86
2022/01/01 09:42:17;;;;;;;39.95;11.25;;;12.00;99.90;;;;;;4250118;27;20054;-86
2022/01/01 09:44:20;;;;;;;41.65;12.50;;;12.30;99.90;;;;;;4231291;28;20089;-86
2022/01/01 09:46:21;;;;;;;27.92;11.82;;;12.20;99.90;;;;;;4245323;27;20490;-86
2022/01/01 09:48:25;;;;;;;35.10;11.95;;;12.00;99.90;;;;;;4233115;27;20043;-86
2022/01/01 09:50:26;;;;;;;31.80;11.57;;;12.10;99.90;;;;;;4232353;28;20488;-87
2022/01/01 09:52:28;;;;;;;83.05;23.23;;;12.10;99.90;;;;;;4236121;27;20479;-85
2022/01/01 09:54:30;;;;;;;33.75;13.40;;;12.20;99.90;;;;;;4232061;28;20040;-87
2022/01/01 09:56:34;;;;;;;33.13;10.60;;;12.20;99.90;;;;;;4230278;28;20089;-86
2022/01/01 09:58:37;;;;;;;26.55;9.30;;;12.20;99.90;;;;;;4231783;28;20043;-86
2022/01/01 10:00:38;;;;;;;31.67;10.40;;;12.30;99.90;;;;;;4216291;28;20102;-86
2022/01/01 10:02:38;;;;;;;23.80;9.32;;;12.70;99.90;;;;;;4231898;28;20063;-87
2022/01/01 10:04:52;;;;;;;22.45;8.80;;;12.30;99.90;;;;;;4234086;28;20081;-86
2022/01/01 10:07:05;;;;;;;27.30;9.73;;;12.40;99.90;;;;;;4238775;27;20054;-86
2022/01/01 10:09:08;;;;;;;26.90;9.10;;;12.50;99.90;;;;;;4239910;27;20042;-85
2022/01/01 10:11:17;;;;;;;26.08;8.70;;;12.40;99.90;;;;;;4223849;28;20047;-86
2022/01/01 10:13:18;;;;;;;22.55;8.82;;;12.40;99.90;;;;;;4232193;28;20117;-86
2022/01/01 10:15:19;;;;;;;21.58;8.70;;;12.80;99.90;;;;;;4244804;27;20461;-86
2022/01/01 10:17:22;;;;;;;28.88;9.10;;;12.40;99.90;;;;;;4257405;27;20061;-86
2022/01/01 10:19:29;;;;;;;24.50;8.30;;;12.40;99.90;;;;;;4234716;28;20229;-85
2022/01/01 10:21:37;;;;;;;23.83;7.70;;;12.40;99.90;;;;;;4249847;27;20043;-86
2022/01/01 10:23:42;;;;;;;22.90;8.95;;;12.40;99.90;;;;;;4243504;28;20081;-86